Schrassig, Luxembourg
Current Conditions -  °F | °C
As of 6:50 PM on Tuesday 21 Oct 2014 (Local Time) from ELLX Reporting Station
Broken Clouds Broken Clouds  
Wind Chill: 39°   Ceiling: 5000
Heat Index: 46°   Visibility: 6mi
Dew Point: 39°   Wind: 18mph
Humidity: 76%   Direction: 290°WNW
Pressure: 29.74"   Gusts: 30mph
Location:  49.61°N, 6.26°E
Report Text: ELLX 211650Z 29016G26KT 260V320 9999 SCT029TCU BKN050 08/04 Q1007 NOSIG
Loading
Personal Weather Stations






























Interactive Weather Map
Tropical Storm Tracking
New forecast layout! Learn more

10-Day Weather Forecast

Advertisements
Track Severe Weather on mobile